Ruffner, Alabama
Current Conditions -  °F | °C
As of 2:53 AM on Sunday 21 Dec 2014 (Local Time) from KBHM Reporting Station
Haze Haze  
Wind Chill: 36°   Ceiling: Unl
Heat Index: 36°   Visibility: 6mi
Dew Point: 35°   Wind: 0mph
Humidity: 97%   Direction: NA
Pressure: 30.21"   Gusts: NA
Location:  33.5393°N, 86.6626°W
Report Text: KBHM 210853Z 00000KT 6SM BR FEW032 02/02 A3021 RMK AO2 SLP233 T00220017 55001
Loading
Personal Weather Stations






























Interactive Weather Map New forecast layout! Learn more

10-Day Weather Forecast

Advertisements
Track Severe Weather on mobile